Beernem, Belgium
Current Conditions -  °F | °C
As of 12:50 PM on Saturday 20 Dec 2014 (Local Time) from EBOS Reporting Station
Few Clouds Few Clouds  
Wind Chill: 40°   Ceiling: Unl
Heat Index: 48°   Visibility: 6mi
Dew Point: 39°   Wind: 28mph
Humidity: 71%   Direction: 270°W
Pressure: 30.24"   Gusts: NA
Location:  51.14°N, 3.34°E
Report Text: EBOS 201150Z 27024KT 9999 FEW020 09/04 Q1024 TEMPO 27026G36KT
Loading
Personal Weather Stations






























Interactive Weather Map New forecast layout! Learn more

10-Day Weather Forecast

Advertisements
Track Severe Weather on mobile